Time;durP1;ratioP1;P1;durP2;ratioP2;P2;SDS_P1;SDS_P2;PMS_P1;PMS_P2;Temp;Humidity;BMP_temperature;BMP_pressure;BME280_temperature;BME280_humidity;BME280_pressure;Samples;Min_cycle;Max_cycle;Signal;HPM_P1;HPM_P2
2022/08/13 00:00:10;;;;;;;2.17;1.57;;;;;;;15.57;59.53;93964.44;5001554;28;20731;-68
2022/08/13 00:02:56;;;;;;;3.63;1.93;;;;;;;15.45;60.28;93975.78;5010572;28;20195;-68
2022/08/13 00:05:43;;;;;;;1.83;1.73;;;;;;;15.50;60.10;93971.81;5010881;28;20318;-67
2022/08/13 00:08:28;;;;;;;2.20;1.60;;;;;;;15.52;60.09;93968.38;5004324;28;20229;-71
2022/08/13 00:12:56;;;;;;;3.00;1.60;;;;;;;15.62;59.73;93966.13;5010038;28;20231;-68
2022/08/13 00:14:16;;;;;;;1.83;1.50;;;;;;;15.58;59.86;93963.81;5010460;28;20204;-68
2022/08/13 00:17:02;;;;;;;4.37;1.47;;;;;;;15.51;60.25;93956.34;5000839;28;20207;-68
2022/08/13 00:19:49;;;;;;;2.03;1.60;;;;;;;15.69;59.91;93954.53;5011130;28;20207;-70
2022/08/13 00:22:34;;;;;;;2.90;1.60;;;;;;;15.71;59.71;93957.47;5005075;28;20196;-69
2022/08/13 00:25:20;;;;;;;1.70;1.60;;;;;;;15.74;59.66;93944.91;5001465;28;20207;-70
2022/08/13 00:28:05;;;;;;;4.33;1.50;;;;;;;15.89;59.14;93945.66;5018841;28;20204;-72
2022/08/13 00:30:49;;;;;;;2.07;1.50;;;;;;;15.80;59.33;93946.59;5010387;28;20228;-69
2022/08/13 00:33:33;;;;;;;1.90;1.80;;;;;;;15.72;59.56;93942.00;5000543;28;20278;-67
2022/08/13 00:36:17;;;;;;;1.77;1.67;;;;;;;15.76;59.61;93936.53;5007474;28;20283;-68
2022/08/13 00:39:07;;;;;;;9.37;2.37;;;;;;;15.70;59.89;93941.88;5009938;28;20204;-72
2022/08/13 00:41:52;;;;;;;2.00;1.37;;;;;;;15.73;59.77;93942.72;5007037;28;20204;-68
2022/08/13 00:44:39;;;;;;;2.53;2.00;;;;;;;15.82;59.65;93943.84;5001990;28;20203;-67
2022/08/13 00:50:30;;;;;;;1.80;1.70;;;;;;;15.67;59.90;93937.50;5010640;28;20682;-67
2022/08/13 00:53:18;;;;;;;3.93;1.90;;;;;;;15.73;59.77;93943.47;5000073;28;20287;-70
2022/08/13 00:56:02;;;;;;;2.43;2.10;;;;;;;15.66;59.79;93932.47;5013874;28;20204;-67
2022/08/13 00:58:47;;;;;;;2.93;2.27;;;;;;;15.62;60.10;93938.63;5001759;28;20207;-71
2022/08/13 01:01:31;;;;;;;2.10;1.50;;;;;;;15.53;60.22;93936.72;5007846;28;20661;-70
2022/08/13 01:04:20;;;;;;;1.73;1.53;;;;;;;15.58;60.36;93938.41;4997134;28;20800;-71
2022/08/13 01:07:04;;;;;;;2.50;1.90;;;;;;;15.49;60.30;93930.81;5006554;28;20204;-74
2022/08/13 01:09:49;;;;;;;1.40;1.30;;;;;;;15.47;60.74;93936.38;5013776;28;20199;-70
2022/08/13 01:12:36;;;;;;;1.70;1.60;;;;;;;15.44;60.93;93928.41;5004140;28;20717;-67
2022/08/13 01:15:23;;;;;;;3.63;1.80;;;;;;;15.47;61.29;93936.38;5009232;28;20199;-67
2022/08/13 01:18:12;;;;;;;2.00;1.80;;;;;;;15.23;62.02;93937.91;5001866;28;20234;-68
2022/08/13 01:21:08;;;;;;;2.30;1.90;;;;;;;15.20;62.38;93939.13;5008969;28;20199;-67
2022/08/13 01:23:54;;;;;;;2.97;1.97;;;;;;;15.22;63.02;93927.97;5005978;28;20200;-69
2022/08/13 01:26:39;;;;;;;4.13;2.60;;;;;;;15.29;62.95;93943.88;4999470;28;20199;-69
2022/08/13 01:29:25;;;;;;;3.73;1.97;;;;;;;15.26;63.43;93931.00;5001105;28;20200;-68
2022/08/13 01:32:10;;;;;;;2.53;2.13;;;;;;;15.34;63.33;93942.72;5007774;28;20271;-69
2022/08/13 01:34:54;;;;;;;4.70;2.30;;;;;;;15.38;63.33;93937.28;5004624;28;20661;-67
2022/08/13 01:37:38;;;;;;;2.83;2.10;;;;;;;15.15;63.96;93932.53;5004213;28;20207;-68
2022/08/13 01:40:23;;;;;;;3.07;2.40;;;;;;;14.89;64.98;93931.09;4998220;28;20259;-69
2022/08/13 01:43:08;;;;;;;3.53;2.00;;;;;;;15.00;64.90;93929.59;4995425;28;20205;-66
2022/08/13 01:45:52;;;;;;;2.20;2.00;;;;;;;14.80;65.60;93926.38;5003275;28;20224;-67
2022/08/13 01:51:42;;;;;;;4.00;2.40;;;;;;;14.82;65.28;93930.03;5002095;28;20224;-66
2022/08/13 01:54:27;;;;;;;3.63;2.43;;;;;;;14.80;65.51;93932.75;5005307;28;20204;-67
2022/08/13 01:57:11;;;;;;;2.50;2.30;;;;;;;14.73;65.60;93930.94;5006426;28;20538;-68
2022/08/13 01:59:55;;;;;;;4.57;2.20;;;;;;;14.79;65.33;93936.91;5005738;28;20553;-67
2022/08/13 02:02:42;;;;;;;4.17;2.37;;;;;;;14.71;65.42;93936.47;5002749;28;20641;-68
2022/08/13 02:05:27;;;;;;;3.47;2.27;;;;;;;14.56;65.81;93934.22;5007465;28;20299;-68
2022/08/13 02:08:13;;;;;;;2.30;2.10;;;;;;;14.27;67.29;93933.88;5004557;28;20219;-68
2022/08/13 02:10:57;;;;;;;4.83;2.10;;;;;;;14.19;67.09;93934.88;5004772;28;20221;-69
2022/08/13 02:13:42;;;;;;;2.43;2.23;;;;;;;14.04;67.65;93940.31;5001260;28;20204;-68
2022/08/13 02:16:37;;;;;;;2.53;1.90;;;;;;;13.94;67.71;93946.09;5002176;28;20200;-69
2022/08/13 02:19:21;;;;;;;2.30;2.03;;;;;;;13.82;67.80;93936.22;5010347;28;20201;-69
2022/08/13 02:22:05;;;;;;;4.23;2.50;;;;;;;13.73;68.49;93930.09;5003726;28;20680;-68
2022/08/13 02:24:56;;;;;;;2.40;2.20;;;;;;;13.68;68.46;93928.38;5005590;28;20203;-68
2022/08/13 02:27:41;;;;;;;4.17;2.80;;;;;;;13.51;68.95;93925.22;5003671;28;20238;-68
2022/08/13 02:30:27;;;;;;;2.63;2.43;;;;;;;13.22;70.31;93925.53;4998211;28;20223;-68
2022/08/13 02:33:13;;;;;;;4.30;2.30;;;;;;;13.27;70.65;93919.56;4999584;28;20273;-67
2022/08/13 02:35:57;;;;;;;3.63;2.33;;;;;;;13.38;70.46;93917.38;5000156;28;20203;-67
2022/08/13 02:38:42;;;;;;;3.23;2.20;;;;;;;13.63;69.68;93915.41;4997270;28;20208;-67
2022/08/13 02:41:43;;;;;;;2.87;2.50;;;;;;;13.73;69.05;93918.09;4997534;28;20200;-67
2022/08/13 02:44:28;;;;;;;4.70;2.13;;;;;;;13.64;68.94;93921.78;5004078;28;20220;-68
2022/08/13 02:47:13;;;;;;;3.27;2.70;;;;;;;13.56;69.56;93921.28;5009715;28;20274;-68
2022/08/13 02:49:59;;;;;;;2.80;2.30;;;;;;;13.58;69.36;93929.84;5008414;28;20202;-68
2022/08/13 02:52:43;;;;;;;2.23;2.07;;;;;;;13.27;70.61;93930.81;4998815;28;20200;-68
2022/08/13 02:55:30;;;;;;;3.27;2.50;;;;;;;12.95;71.94;93935.16;5011379;28;20241;-68
2022/08/13 02:58:15;;;;;;;2.37;2.17;;;;;;;13.15;71.17;93932.13;5009765;28;20704;-68
2022/08/13 03:01:02;;;;;;;2.43;2.23;;;;;;;13.07;71.22;93923.94;4996966;28;20288;-68
2022/08/13 03:03:46;;;;;;;2.80;2.57;;;;;;;13.09;71.78;93926.84;4999991;28;20204;-68
2022/08/13 03:06:31;;;;;;;2.80;2.40;;;;;;;13.00;71.45;93930.50;5006953;28;20274;-68
2022/08/13 03:09:16;;;;;;;2.70;2.43;;;;;;;12.89;71.86;93920.72;4999022;28;20212;-68
2022/08/13 03:12:04;;;;;;;2.80;2.60;;;;;;;12.90;71.83;93927.06;5007656;28;20219;-68
2022/08/13 03:14:50;;;;;;;3.60;2.67;;;;;;;12.82;71.82;93927.31;5002691;28;20231;-68
2022/08/13 03:17:34;;;;;;;4.07;3.00;;;;;;;12.66;72.54;93925.53;5004576;28;20680;-68
2022/08/13 03:20:20;;;;;;;3.53;3.23;;;;;;;12.62;72.59;93919.66;5000248;28;20278;-68
2022/08/13 03:23:07;;;;;;;3.43;3.00;;;;;;;12.66;72.86;93919.91;4996786;28;20259;-68
2022/08/13 03:25:51;;;;;;;3.10;2.80;;;;;;;12.64;72.96;93922.59;5007541;28;20203;-68
2022/08/13 03:28:35;;;;;;;3.03;2.83;;;;;;;12.53;73.19;93930.38;5002712;28;20203;-68
2022/08/13 03:31:21;;;;;;;4.57;2.67;;;;;;;12.47;73.13;93927.16;4997854;28;20228;-68
2022/08/13 03:34:06;;;;;;;3.00;2.80;;;;;;;12.37;73.64;93929.34;4996332;28;20558;-68
2022/08/13 03:36:53;;;;;;;3.27;2.60;;;;;;;12.29;73.32;93934.44;5000701;28;20261;-68
2022/08/13 03:39:37;;;;;;;2.50;2.13;;;;;;;12.27;73.17;93942.75;5005882;28;20230;-68
2022/08/13 03:42:22;;;;;;;4.43;2.20;;;;;;;11.95;75.32;93940.59;5008536;28;20200;-68
2022/08/13 03:45:08;;;;;;;3.07;2.87;;;;;;;12.04;74.88;93934.16;5004509;28;20299;-68
2022/08/13 03:47:52;;;;;;;2.83;2.63;;;;;;;12.02;74.92;93923.56;4999771;28;20283;-68
2022/08/13 03:50:37;;;;;;;4.37;2.40;;;;;;;11.98;74.34;93933.78;5001719;28;20211;-67
2022/08/13 03:53:21;;;;;;;4.47;2.77;;;;;;;11.94;74.28;93922.28;5003596;28;20231;-67
2022/08/13 03:56:06;;;;;;;4.50;2.67;;;;;;;11.87;74.72;93923.22;4996744;28;20608;-67
2022/08/13 03:58:51;;;;;;;3.03;2.30;;;;;;;11.80;75.10;93930.50;4999140;28;20245;-67
2022/08/13 04:01:35;;;;;;;5.87;2.87;;;;;;;11.77;75.02;93936.59;4997229;28;20195;-67
2022/08/13 04:04:20;;;;;;;3.57;2.70;;;;;;;11.80;75.43;93929.75;5008856;28;20199;-67
2022/08/13 04:07:04;;;;;;;3.23;2.93;;;;;;;11.78;75.46;93932.44;5002612;28;20240;-67
2022/08/13 04:09:49;;;;;;;4.27;2.80;;;;;;;11.67;75.26;93940.16;5009080;28;20207;-67
2022/08/13 04:12:34;;;;;;;4.50;2.43;;;;;;;11.66;75.83;93938.69;5004168;28;20215;-67
2022/08/13 04:15:19;;;;;;;2.70;2.40;;;;;;;11.75;75.36;93934.38;4992097;28;20610;-66
2022/08/13 04:18:03;;;;;;;2.77;2.50;;;;;;;11.87;75.20;93920.41;4996600;28;20216;-67
2022/08/13 04:20:50;;;;;;;3.00;2.70;;;;;;;11.81;75.06;93920.00;4998389;28;20196;-67
2022/08/13 04:23:39;;;;;;;6.40;2.30;;;;;;;11.66;75.11;93921.84;4999462;28;20204;-67
2022/08/13 04:26:25;;;;;;;2.80;2.60;;;;;;;11.68;75.78;93916.34;5004781;28;20211;-67
2022/08/13 04:29:10;;;;;;;3.13;2.83;;;;;;;11.75;75.61;93921.06;5003696;28;20266;-67
2022/08/13 04:31:53;;;;;;;3.13;2.73;;;;;;;11.65;76.21;93920.38;5009612;28;20221;-67
2022/08/13 04:34:38;;;;;;;3.17;2.30;;;;;;;11.61;76.69;93914.47;5002762;28;20207;-67
2022/08/13 04:37:22;;;;;;;5.77;3.00;;;;;;;11.76;76.27;93907.78;5008541;28;20923;-67
2022/08/13 04:40:07;;;;;;;2.60;2.40;;;;;;;11.95;75.83;93918.16;5011347;28;20203;-66
2022/08/13 04:42:53;;;;;;;3.37;2.37;;;;;;;12.06;75.62;93920.28;5009318;28;20570;-67
2022/08/13 04:45:38;;;;;;;8.90;2.57;;;;;;;12.24;74.24;93915.84;5004901;28;20200;-67
2022/08/13 04:48:23;;;;;;;3.10;2.50;;;;;;;12.27;75.15;93923.06;5011074;28;20195;-67
2022/08/13 04:51:08;;;;;;;3.37;2.50;;;;;;;12.61;73.26;93913.28;5003418;28;20220;-67
2022/08/13 04:53:52;;;;;;;4.00;3.00;;;;;;;12.81;72.54;93928.63;5001817;28;20200;-67
2022/08/13 04:56:36;;;;;;;2.50;2.30;;;;;;;13.19;71.39;93916.25;5001783;28;20688;-67
2022/08/13 04:59:22;;;;;;;3.67;2.30;;;;;;;13.58;70.06;93918.56;5002708;28;20196;-66
2022/08/13 05:02:06;;;;;;;8.53;2.33;;;;;;;13.65;69.96;93923.22;5007016;28;20199;-67
2022/08/13 05:04:51;;;;;;;3.70;2.40;;;;;;;14.19;68.58;93914.44;5013840;28;20223;-67
2022/08/13 05:07:36;;;;;;;4.57;2.00;;;;;;;14.58;67.00;93917.38;5003065;28;20226;-67
2022/08/13 05:10:20;;;;;;;3.73;1.90;;;;;;;14.43;66.71;93912.31;4998762;28;20745;-67
2022/08/13 05:13:21;;;;;;;5.40;2.43;;;;;;;14.66;67.05;93915.03;5003971;28;20680;-67
2022/08/13 05:16:08;;;;;;;2.97;2.30;;;;;;;15.16;66.25;93916.34;4998057;28;20661;-67
2022/08/13 05:18:54;;;;;;;2.87;1.90;;;;;;;15.38;65.67;93909.78;5005114;28;20275;-67
2022/08/13 05:21:38;;;;;;;3.87;2.33;;;;;;;15.24;66.11;93916.78;4995786;28;20192;-67
2022/08/13 05:24:22;;;;;;;2.57;1.83;;;;;;;15.69;64.39;93909.31;5001033;28;20295;-67
2022/08/13 05:27:09;;;;;;;2.17;1.90;;;;;;;15.74;64.07;93911.00;4997882;28;20208;-67
2022/08/13 05:29:55;;;;;;;2.13;1.93;;;;;;;16.36;62.44;93915.53;4994984;28;20670;-67
2022/08/13 05:32:39;;;;;;;3.27;1.90;;;;;;;16.03;62.33;93912.47;5003824;28;20204;-67
2022/08/13 05:35:27;;;;;;;2.20;1.80;;;;;;;16.02;63.23;93911.00;5004602;28;20283;-68
2022/08/13 05:38:11;;;;;;;3.97;2.00;;;;;;;15.94;63.07;93910.56;4997765;28;20223;-67
2022/08/13 05:41:02;;;;;;;1.87;1.77;;;;;;;16.70;62.05;93912.97;5004345;28;20196;-67
2022/08/13 05:43:50;;;;;;;3.43;2.00;;;;;;;17.09;61.00;93902.13;5006741;28;20274;-67
2022/08/13 05:46:34;;;;;;;3.03;1.70;;;;;;;17.07;60.38;93898.47;5000886;28;20208;-68
2022/08/13 05:49:19;;;;;;;6.67;2.00;;;;;;;16.95;60.77;93895.78;5005364;28;20200;-68
2022/08/13 05:52:03;;;;;;;2.27;2.07;;;;;;;16.87;62.00;93903.88;5011628;28;20298;-67
2022/08/13 05:54:47;;;;;;;4.80;2.10;;;;;;;17.02;61.70;93903.19;5009106;28;20200;-68
2022/08/13 05:57:31;;;;;;;2.80;1.83;;;;;;;16.77;63.15;93894.94;5001411;28;20208;-68
2022/08/13 06:03:25;;;;;;;2.60;1.63;;;;;;;17.12;62.86;93906.50;4998398;28;20200;-70
2022/08/13 06:06:11;;;;;;;2.63;1.77;;;;;;;17.69;60.73;93909.13;5010294;28;20718;-70
2022/08/13 06:08:56;;;;;;;2.67;1.90;;;;;;;17.72;60.51;93902.88;5002810;28;20204;-69
2022/08/13 06:11:41;;;;;;;1.40;1.27;;;;;;;17.82;60.17;93905.44;5000951;28;20328;-68
2022/08/13 06:14:25;;;;;;;4.10;2.03;;;;;;;18.02;59.92;93899.94;5005907;28;20282;-68
2022/08/13 06:17:12;;;;;;;3.53;1.70;;;;;;;18.40;58.22;93892.31;5003748;28;20195;-68
2022/08/13 06:20:03;;;;;;;2.83;1.77;;;;;;;18.63;56.57;93891.91;5011187;28;20227;-70
2022/08/13 06:22:50;;;;;;;2.00;1.77;;;;;;;19.26;56.00;93891.53;5007723;28;20200;-69
2022/08/13 06:25:35;;;;;;;2.77;1.80;;;;;;;19.33;54.74;93898.91;5000354;28;20294;-69
2022/08/13 06:28:21;;;;;;;2.50;1.60;;;;;;;19.02;56.11;93899.09;4999265;28;20196;-69
2022/08/13 06:31:08;;;;;;;1.80;1.70;;;;;;;19.21;54.86;93904.09;5001773;28;20228;-68
2022/08/13 06:33:56;;;;;;;3.23;1.60;;;;;;;19.57;54.09;93905.53;4999322;28;20214;-68
2022/08/13 06:36:40;;;;;;;5.20;1.50;;;;;;;19.78;52.03;93899.22;5001923;28;20251;-68
2022/08/13 06:39:27;;;;;;;4.13;1.50;;;;;;;19.81;53.27;93919.19;4998769;28;20698;-69
2022/08/13 06:42:11;;;;;;;2.03;1.27;;;;;;;19.88;52.35;93918.03;5003857;28;20195;-69
2022/08/13 06:44:58;;;;;;;3.13;1.50;;;;;;;20.14;53.02;93928.25;5004368;28;20222;-68
2022/08/13 06:47:44;;;;;;;3.03;1.70;;;;;;;20.63;52.45;93923.53;5005513;28;20200;-68
2022/08/13 06:50:28;;;;;;;1.57;1.43;;;;;;;20.22;52.67;93918.53;4998662;28;20232;-69
2022/08/13 06:53:14;;;;;;;6.37;1.53;;;;;;;19.32;55.62;93918.06;5007377;28;20200;-71
2022/08/13 06:55:58;;;;;;;3.37;1.50;;;;;;;19.23;55.41;93926.94;5001982;28;20204;-68
2022/08/13 06:58:45;;;;;;;1.70;1.60;;;;;;;19.45;55.34;93924.94;5002840;28;20195;-68
2022/08/13 07:01:29;;;;;;;3.33;1.67;;;;;;;18.85;57.11;93924.00;5000048;28;20205;-69
2022/08/13 07:04:19;;;;;;;3.97;2.00;;;;;;;18.70;57.75;93924.81;5007964;28;20235;-70
2022/08/13 07:07:04;;;;;;;1.90;1.50;;;;;;;18.78;57.08;93936.50;5006682;28;20199;-68
2022/08/13 07:09:50;;;;;;;2.93;1.67;;;;;;;18.95;57.87;93927.25;5004106;28;20876;-68
2022/08/13 07:12:34;;;;;;;1.60;1.50;;;;;;;19.90;55.64;93932.31;4997796;28;20674;-68
2022/08/13 07:15:18;;;;;;;2.77;2.00;;;;;;;19.61;56.01;93936.97;5003766;28;20226;-68
2022/08/13 07:18:07;;;;;;;2.13;1.83;;;;;;;19.89;55.44;93940.13;4999289;28;20258;-69
2022/08/13 07:20:51;;;;;;;2.00;1.57;;;;;;;18.86;58.49;93942.50;5001806;28;20291;-69
2022/08/13 07:23:37;;;;;;;2.07;1.70;;;;;;;18.84;58.80;93936.00;5004624;28;20223;-68
2022/08/13 07:26:24;;;;;;;2.30;2.10;;;;;;;19.57;57.40;93930.38;5000653;28;20208;-69
2022/08/13 07:29:09;;;;;;;3.07;2.00;;;;;;;20.00;57.65;93935.53;5002390;28;20199;-69
2022/08/13 07:31:54;;;;;;;1.80;1.70;;;;;;;20.46;57.01;93934.38;5006326;28;20219;-68
2022/08/13 07:34:39;;;;;;;3.77;1.73;;;;;;;20.69;53.43;93940.81;4999395;28;20192;-68
2022/08/13 07:37:23;;;;;;;2.58;1.45;;;;;;;21.04;51.35;93937.75;5009315;28;20207;-68
2022/08/13 07:40:08;;;;;;;2.13;1.60;;;;;;;21.36;49.91;93935.91;4998558;28;20196;-68
2022/08/13 07:42:53;;;;;;;4.07;1.50;;;;;;;21.49;49.42;93937.03;5002977;28;20231;-71
2022/08/13 07:45:37;;;;;;;5.13;1.60;;;;;;;22.03;50.26;93931.53;5006086;28;20200;-69
2022/08/13 07:48:21;;;;;;;2.23;1.40;;;;;;;21.99;48.63;93926.44;4998698;28;20211;-68
2022/08/13 07:51:10;;;;;;;1.60;1.50;;;;;;;22.17;46.70;93924.09;5000882;28;20227;-67
2022/08/13 07:53:56;;;;;;;3.30;1.27;;;;;;;21.95;47.16;93920.63;5006982;28;20304;-68
2022/08/13 07:56:47;;;;;;;3.22;1.40;;;;;;;22.04;44.71;93930.84;5000768;28;20232;-68
2022/08/13 07:59:32;;;;;;;1.30;1.20;;;;;;;22.41;47.12;93929.72;4999083;28;20297;-68
2022/08/13 08:02:17;;;;;;;1.25;1.15;;;;;;;22.57;44.34;93935.91;5005961;28;20238;-69
2022/08/13 08:05:03;;;;;;;2.58;1.05;;;;;;;22.64;41.57;93939.66;5001928;28;20700;-73
2022/08/13 08:07:50;;;;;;;1.58;1.02;;;;;;;22.20;45.60;93942.00;5002820;28;20210;-69
2022/08/13 08:10:40;;;;;;;1.83;1.10;;;;;;;22.65;44.63;93941.06;5015616;28;20302;-72
2022/08/13 08:13:26;;;;;;;3.20;1.10;;;;;;;23.22;43.44;93936.81;5011421;28;20693;-69
2022/08/13 08:16:11;;;;;;;3.60;1.33;;;;;;;22.46;43.09;93930.59;5002532;28;20230;-69
2022/08/13 08:18:55;;;;;;;4.00;1.65;;;;;;;22.19;45.37;93938.41;5012611;28;20201;-68
2022/08/13 08:21:41;;;;;;;2.30;1.10;;;;;;;22.91;42.18;93938.94;5007507;28;20195;-69
2022/08/13 08:24:30;;;;;;;1.20;0.90;;;;;;;22.18;42.36;93942.66;5008562;28;20211;-69
2022/08/13 08:27:16;;;;;;;1.50;1.27;;;;;;;22.57;42.90;93938.03;5006391;28;20208;-69
2022/08/13 08:30:01;;;;;;;3.88;1.27;;;;;;;23.25;41.83;93935.47;5008257;28;20604;-69
2022/08/13 08:32:53;;;;;;;3.35;1.50;;;;;;;24.00;43.51;93940.06;5011254;28;20215;-68
2022/08/13 08:35:37;;;;;;;1.85;1.38;;;;;;;23.65;43.05;93941.44;5010158;28;20276;-72
2022/08/13 08:44:30;;;;;;;2.55;1.90;;;;;;;24.42;44.00;93943.09;5004644;28;20203;-68
2022/08/13 08:47:15;;;;;;;1.92;1.23;;;;;;;23.87;44.62;93944.81;5009539;28;20285;-70
2022/08/13 08:49:59;;;;;;;6.70;1.90;;;;;;;24.41;43.96;93944.50;5016077;28;20275;-68
2022/08/13 08:55:48;;;;;;;3.35;1.50;;;;;;;24.55;42.65;93950.53;5015030;28;20701;-69
2022/08/13 08:58:34;;;;;;;4.95;1.25;;;;;;;24.28;42.76;93949.25;5008063;28;20196;-69
2022/08/13 09:01:24;;;;;;;2.10;1.63;;;;;;;24.28;42.55;93952.13;5010690;28;20559;-68
2022/08/13 09:04:12;;;;;;;1.50;1.40;;;;;;;24.34;42.76;93943.66;5008925;28;20211;-69
2022/08/13 09:06:57;;;;;;;1.33;1.20;;;;;;;24.55;40.57;93939.78;5011086;28;20688;-69
2022/08/13 09:09:43;;;;;;;1.77;1.42;;;;;;;25.23;40.28;93933.84;5008935;28;20261;-67
2022/08/13 09:12:28;;;;;;;3.78;1.58;;;;;;;24.89;39.70;93941.84;5001226;28;20223;-68
2022/08/13 09:15:15;;;;;;;2.58;1.20;;;;;;;25.12;39.33;93940.81;4997334;28;20307;-67
2022/08/13 09:18:00;;;;;;;5.88;1.60;;;;;;;25.60;40.12;93935.19;5001388;28;20210;-68
2022/08/13 09:20:45;;;;;;;1.58;1.35;;;;;;;24.94;39.92;93934.78;5000169;28;20196;-70
2022/08/13 09:23:34;;;;;;;1.55;1.40;;;;;;;25.45;38.83;93935.63;5006376;28;20204;-68
2022/08/13 09:26:19;;;;;;;3.63;1.70;;;;;;;25.53;38.93;93935.75;4999706;28;20251;-68
2022/08/13 09:29:03;;;;;;;3.00;1.27;;;;;;;25.31;40.71;93945.44;5001285;28;20746;-70
2022/08/13 09:31:50;;;;;;;3.45;1.17;;;;;;;25.54;35.90;93931.47;5005991;28;20227;-68
2022/08/13 09:34:37;;;;;;;1.52;1.10;;;;;;;25.15;40.57;93933.72;5001974;28;20211;-71
2022/08/13 09:37:23;;;;;;;1.58;1.25;;;;;;;25.80;36.65;93934.72;5004962;28;20258;-72
2022/08/13 09:40:11;;;;;;;1.77;1.30;;;;;;;25.75;36.66;93936.09;5006058;28;20200;-70
2022/08/13 09:43:02;;;;;;;1.58;1.40;;;;;;;25.79;35.33;93936.19;5003588;28;20208;-71
2022/08/13 09:45:47;;;;;;;2.92;1.30;;;;;;;25.64;36.92;93940.25;5004689;28;20207;-71
2022/08/13 09:48:31;;;;;;;3.17;1.23;;;;;;;25.38;36.81;93938.38;5005970;28;20211;-68
2022/08/13 09:51:15;;;;;;;4.53;1.38;;;;;;;25.16;38.02;93934.44;5006489;28;20242;-69
2022/08/13 09:54:05;;;;;;;4.03;1.38;;;;;;;25.28;35.64;93938.25;4983703;28;20204;-72
2022/08/13 09:56:50;;;;;;;4.07;1.30;;;;;;;25.95;37.55;93945.00;5004982;28;20207;-69
2022/08/13 09:59:34;;;;;;;4.70;1.35;;;;;;;25.29;34.92;93942.56;5003324;28;20204;-72
2022/08/13 10:02:18;;;;;;;3.97;1.38;;;;;;;26.00;34.87;93943.63;5010367;28;20204;-72
2022/08/13 10:05:02;;;;;;;1.23;1.13;;;;;;;25.70;34.81;93949.69;4995398;28;20227;-71
2022/08/13 10:07:47;;;;;;;3.35;1.35;;;;;;;26.03;33.54;93948.00;5001944;28;20200;-70
2022/08/13 10:10:31;;;;;;;2.95;1.10;;;;;;;24.79;35.60;93945.25;4998850;28;20227;-70
2022/08/13 10:13:16;;;;;;;1.80;1.25;;;;;;;24.31;36.87;93947.91;4998764;28;20346;-69
2022/08/13 10:16:00;;;;;;;1.67;1.27;;;;;;;23.91;37.40;93944.16;4992995;28;20202;-70
2022/08/13 10:18:46;;;;;;;1.63;1.20;;;;;;;24.81;36.61;93950.28;4995222;28;20215;-71
2022/08/13 10:21:31;;;;;;;2.47;1.30;;;;;;;25.05;35.84;93947.88;5004441;28;20196;-71
2022/08/13 10:24:15;;;;;;;3.03;1.60;;;;;;;24.83;37.29;93950.31;5008560;28;20212;-70
2022/08/13 10:27:00;;;;;;;1.42;1.20;;;;;;;25.38;35.52;93944.13;4999997;28;20203;-70
2022/08/13 10:29:44;;;;;;;2.42;1.75;;;;;;;25.64;35.49;93943.13;4998028;28;20216;-72
2022/08/13 10:32:28;;;;;;;5.50;1.33;;;;;;;26.22;35.43;93936.75;5010261;28;20219;-70
2022/08/13 10:35:12;;;;;;;2.45;1.45;;;;;;;26.44;34.70;93931.28;5000054;28;20236;-70
2022/08/13 10:37:57;;;;;;;2.13;1.50;;;;;;;27.04;33.84;93922.59;4995348;28;20203;-71
2022/08/13 10:40:42;;;;;;;2.25;1.58;;;;;;;25.75;34.04;93938.97;5005955;28;20280;-75
2022/08/13 10:43:27;;;;;;;1.40;1.27;;;;;;;25.57;32.87;93924.34;4999281;28;20265;-73
2022/08/13 10:46:12;;;;;;;2.78;1.17;;;;;;;24.07;35.23;93927.34;5000844;28;20665;-67
2022/08/13 10:48:56;;;;;;;5.80;1.63;;;;;;;25.05;34.41;93930.69;5004628;28;20266;-68
2022/08/13 10:51:40;;;;;;;1.52;1.23;;;;;;;25.66;33.41;93923.78;5006336;28;20247;-69
2022/08/13 10:54:25;;;;;;;4.45;1.10;;;;;;;25.50;34.83;93920.63;5000750;28;20271;-71
2022/08/13 10:57:11;;;;;;;4.15;1.20;;;;;;;26.43;33.88;93927.69;5009791;28;20231;-69
2022/08/13 10:59:55;;;;;;;4.68;1.67;;;;;;;25.69;34.05;93913.78;5005268;28;20210;-69
2022/08/13 11:02:40;;;;;;;1.45;1.35;;;;;;;26.46;33.19;93919.84;4993593;28;20223;-70
2022/08/13 11:05:25;;;;;;;1.20;1.10;;;;;;;27.51;32.66;93920.88;5009581;28;20219;-70
2022/08/13 11:08:12;;;;;;;5.43;1.30;;;;;;;27.66;32.24;93913.78;5001404;28;20210;-71
2022/08/13 11:10:57;;;;;;;1.45;1.10;;;;;;;27.45;32.67;93912.19;5007485;28;20219;-70
2022/08/13 11:13:42;;;;;;;1.42;1.33;;;;;;;27.50;32.95;93919.41;5007422;28;20254;-71
2022/08/13 11:19:21;;;;;;;1.75;1.40;;;;;;;28.14;32.25;93915.56;4998956;28;20203;-71
2022/08/13 11:22:05;;;;;;;4.10;1.50;;;;;;;26.40;34.07;93911.88;4996464;28;20207;-69
2022/08/13 11:24:49;;;;;;;1.42;1.25;;;;;;;27.94;30.69;93912.53;5008316;28;20278;-68
2022/08/13 11:27:34;;;;;;;3.03;1.50;;;;;;;29.30;30.06;93905.78;4993805;28;20204;-69
2022/08/13 11:30:19;;;;;;;2.78;1.45;;;;;;;27.73;31.60;93906.63;5000592;28;20207;-71
2022/08/13 11:33:05;;;;;;;1.77;1.15;;;;;;;26.98;32.54;93902.41;5004619;28;20206;-69
2022/08/13 11:35:52;;;;;;;2.30;1.40;;;;;;;28.22;30.41;93898.28;5005335;28;20222;-72
2022/08/13 11:38:37;;;;;;;1.90;1.30;;;;;;;27.64;31.03;93901.53;5000968;28;20230;-70
2022/08/13 11:41:21;;;;;;;1.52;1.27;;;;;;;27.83;31.08;93903.09;5004758;28;20593;-71
2022/08/13 11:44:05;;;;;;;1.38;1.27;;;;;;;27.10;34.07;93896.03;5001929;28;20250;-71
2022/08/13 11:46:50;;;;;;;2.17;1.35;;;;;;;27.31;32.95;93897.66;4998451;28;20214;-72
2022/08/13 11:49:34;;;;;;;1.40;1.30;;;;;;;26.36;33.46;93899.59;5008842;28;20255;-70
2022/08/13 11:52:18;;;;;;;4.43;1.20;;;;;;;26.10;33.44;93897.84;5001538;28;20313;-71
2022/08/13 11:55:03;;;;;;;1.48;1.20;;;;;;;26.52;33.32;93902.66;5003977;28;20208;-70
2022/08/13 11:57:47;;;;;;;2.13;1.55;;;;;;;26.24;34.35;93893.69;5007585;28;20231;-75
2022/08/13 12:00:32;;;;;;;1.90;1.10;;;;;;;26.74;33.46;93894.25;4999738;28;20219;-69
2022/08/13 12:03:16;;;;;;;2.50;1.67;;;;;;;27.23;31.09;93903.34;5007378;28;20200;-70
2022/08/13 12:06:01;;;;;;;1.42;1.33;;;;;;;27.44;30.97;93904.25;5005750;28;20712;-73
2022/08/13 12:08:45;;;;;;;1.98;1.20;;;;;;;27.42;30.45;93896.31;5000103;28;20207;-68
2022/08/13 12:11:30;;;;;;;3.67;1.35;;;;;;;27.76;31.72;93896.59;5003272;28;20648;-70
2022/08/13 12:14:14;;;;;;;2.45;1.55;;;;;;;28.45;31.13;93896.94;5006203;28;20312;-70
2022/08/13 12:17:00;;;;;;;1.63;1.30;;;;;;;28.11;30.69;93896.75;4996301;28;20219;-70
2022/08/13 12:19:44;;;;;;;1.88;1.35;;;;;;;28.11;33.23;93905.41;4995486;28;20210;-69
2022/08/13 12:22:28;;;;;;;2.47;1.33;;;;;;;28.33;31.54;93905.53;4984224;28;20201;-73
2022/08/13 12:25:13;;;;;;;3.10;1.10;;;;;;;28.28;29.41;93898.31;5005235;28;20204;-69
2022/08/13 12:28:20;;;;;;;1.75;1.33;;;;;;;27.60;30.95;93902.22;4999567;28;20649;-71
2022/08/13 12:31:07;;;;;;;3.38;1.20;;;;;;;26.83;31.00;93898.66;4997980;28;20223;-70
2022/08/13 12:33:51;;;;;;;1.90;1.33;;;;;;;27.61;32.36;93911.59;5005976;28;20212;-70
2022/08/13 12:36:35;;;;;;;2.53;1.20;;;;;;;26.80;35.74;93900.06;4993717;28;20642;-70
2022/08/13 12:39:20;;;;;;;4.32;2.10;;;;;;;26.51;35.93;93912.69;4996311;28;20239;-72
2022/08/13 12:42:04;;;;;;;1.90;1.42;;;;;;;26.40;37.04;93916.88;5007360;28;20198;-69
2022/08/13 12:44:48;;;;;;;5.07;1.55;;;;;;;26.34;36.57;93919.69;4993658;28;20204;-70
2022/08/13 12:47:32;;;;;;;1.70;1.60;;;;;;;26.46;36.67;93909.06;4993469;28;20271;-68
2022/08/13 12:50:18;;;;;;;1.73;1.52;;;;;;;26.18;36.52;93915.16;5002861;28;20199;-72
2022/08/13 12:53:05;;;;;;;1.70;1.50;;;;;;;25.80;38.39;93908.19;5011214;28;20203;-69
2022/08/13 12:55:50;;;;;;;5.28;1.42;;;;;;;25.47;35.60;93909.84;5018816;28;20320;-70
2022/08/13 12:58:34;;;;;;;2.92;1.65;;;;;;;25.63;36.06;93912.97;5009215;28;20284;-72
2022/08/13 13:01:19;;;;;;;1.30;1.20;;;;;;;25.81;36.18;93907.47;5009524;28;20728;-70
2022/08/13 13:04:03;;;;;;;5.50;2.00;;;;;;;26.55;36.58;93915.59;4998890;28;20196;-69
2022/08/13 13:06:47;;;;;;;4.18;1.50;;;;;;;26.82;34.81;93910.88;5005448;28;20243;-69
2022/08/13 13:09:31;;;;;;;3.55;1.50;;;;;;;26.37;35.08;93913.25;4999604;28;20196;-71
2022/08/13 13:12:15;;;;;;;1.50;1.40;;;;;;;25.30;36.35;93909.59;4999808;28;20231;-71
2022/08/13 13:14:59;;;;;;;3.60;1.23;;;;;;;26.22;34.60;93913.78;5005811;28;20205;-72
2022/08/13 13:17:43;;;;;;;2.78;1.35;;;;;;;25.21;36.03;93902.25;5002278;28;20199;-70
2022/08/13 13:20:28;;;;;;;3.10;1.42;;;;;;;25.54;37.37;93914.25;5012681;28;20203;-71